sensor_id;sensor_type;location;lat;lon;timestamp;pressure;altitude;pressure_sealevel;temperature;humidity
46690;BME280;32423;45.398;10.874;2023-03-23T00:00:35;100681.16;;;14.86;50.30
46690;BME280;32423;45.398;10.874;2023-03-23T00:03:27;100682.34;;;14.73;50.58
46690;BME280;32423;45.398;10.874;2023-03-23T00:06:20;100672.75;;;14.67;50.96
46690;BME280;32423;45.398;10.874;2023-03-23T00:09:12;100668.66;;;14.61;51.35
46690;BME280;32423;45.398;10.874;2023-03-23T00:12:05;100676.63;;;14.53;51.56
46690;BME280;32423;45.398;10.874;2023-03-23T00:14:57;100663.88;;;14.58;51.54
46690;BME280;32423;45.398;10.874;2023-03-23T00:17:49;100667.84;;;14.60;51.33
46690;BME280;32423;45.398;10.874;2023-03-23T00:20:41;100665.56;;;14.50;51.48
46690;BME280;32423;45.398;10.874;2023-03-23T00:23:33;100665.94;;;14.36;51.78
46690;BME280;32423;45.398;10.874;2023-03-23T00:26:25;100662.16;;;14.41;51.58
46690;BME280;32423;45.398;10.874;2023-03-23T00:29:18;100663.41;;;14.43;51.50
46690;BME280;32423;45.398;10.874;2023-03-23T00:32:10;100662.59;;;14.43;51.41
46690;BME280;32423;45.398;10.874;2023-03-23T00:35:05;100663.75;;;14.42;51.51
46690;BME280;32423;45.398;10.874;2023-03-23T00:37:57;100651.56;;;14.39;51.80
46690;BME280;32423;45.398;10.874;2023-03-23T00:40:49;100653.25;;;14.32;51.84
46690;BME280;32423;45.398;10.874;2023-03-23T00:43:38;100650.72;;;14.14;52.39
46690;BME280;32423;45.398;10.874;2023-03-23T00:46:28;100649.91;;;14.14;52.46
46690;BME280;32423;45.398;10.874;2023-03-23T00:49:20;100649.69;;;14.19;52.22
46690;BME280;32423;45.398;10.874;2023-03-23T00:52:19;100645.25;;;14.27;52.11
46690;BME280;32423;45.398;10.874;2023-03-23T00:55:11;100643.44;;;14.31;52.19
46690;BME280;32423;45.398;10.874;2023-03-23T00:58:02;100641.50;;;14.43;52.14
46690;BME280;32423;45.398;10.874;2023-03-23T01:00:54;100640.38;;;14.44;51.84
46690;BME280;32423;45.398;10.874;2023-03-23T01:03:46;100635.91;;;14.28;52.01
46690;BME280;32423;45.398;10.874;2023-03-23T01:06:38;100627.94;;;14.35;52.00
46690;BME280;32423;45.398;10.874;2023-03-23T01:09:30;100633.63;;;14.30;52.02
46690;BME280;32423;45.398;10.874;2023-03-23T01:12:22;100625.75;;;14.28;52.05
46690;BME280;32423;45.398;10.874;2023-03-23T01:15:15;100631.91;;;14.25;52.24
46690;BME280;32423;45.398;10.874;2023-03-23T01:18:07;100631.00;;;14.21;52.25
46690;BME280;32423;45.398;10.874;2023-03-23T01:20:56;100627.47;;;14.21;52.38
46690;BME280;32423;45.398;10.874;2023-03-23T01:23:48;100623.47;;;14.06;53.04
46690;BME280;32423;45.398;10.874;2023-03-23T01:26:40;100628.59;;;14.07;52.90
46690;BME280;32423;45.398;10.874;2023-03-23T01:29:32;100620.75;;;14.06;53.43
46690;BME280;32423;45.398;10.874;2023-03-23T01:32:24;100618.44;;;14.08;52.82
46690;BME280;32423;45.398;10.874;2023-03-23T01:35:16;100604.31;;;13.94;52.94
46690;BME280;32423;45.398;10.874;2023-03-23T01:38:06;100610.84;;;14.01;53.20
46690;BME280;32423;45.398;10.874;2023-03-23T01:40:58;100606.84;;;14.11;52.62
46690;BME280;32423;45.398;10.874;2023-03-23T01:43:59;100609.44;;;14.07;52.82
46690;BME280;32423;45.398;10.874;2023-03-23T01:46:51;100607.50;;;14.08;53.14
46690;BME280;32423;45.398;10.874;2023-03-23T01:49:43;100595.56;;;14.12;53.23
46690;BME280;32423;45.398;10.874;2023-03-23T01:52:37;100596.38;;;14.01;52.87
46690;BME280;32423;45.398;10.874;2023-03-23T01:55:30;100598.88;;;14.06;52.92
46690;BME280;32423;45.398;10.874;2023-03-23T01:58:22;100596.22;;;13.97;53.31
46690;BME280;32423;45.398;10.874;2023-03-23T02:01:15;100602.28;;;13.91;53.18
46690;BME280;32423;45.398;10.874;2023-03-23T02:04:07;100593.03;;;13.83;53.34
46690;BME280;32423;45.398;10.874;2023-03-23T02:06:59;100588.03;;;13.85;53.09
46690;BME280;32423;45.398;10.874;2023-03-23T02:09:51;100592.16;;;13.91;53.04
46690;BME280;32423;45.398;10.874;2023-03-23T02:12:44;100587.38;;;14.00;52.84
46690;BME280;32423;45.398;10.874;2023-03-23T02:15:42;100581.31;;;13.95;52.84
46690;BME280;32423;45.398;10.874;2023-03-23T02:18:49;100582.13;;;13.95;53.01
46690;BME280;32423;45.398;10.874;2023-03-23T02:24:55;100584.94;;;13.75;53.10
46690;BME280;32423;45.398;10.874;2023-03-23T02:36:41;100574.63;;;13.47;54.65
46690;BME280;32423;45.398;10.874;2023-03-23T02:39:45;100583.03;;;13.42;54.74
46690;BME280;32423;45.398;10.874;2023-03-23T02:42:39;100575.09;;;13.49;54.55
46690;BME280;32423;45.398;10.874;2023-03-23T02:45:32;100575.53;;;13.51;54.70
46690;BME280;32423;45.398;10.874;2023-03-23T02:48:25;100582.28;;;13.54;54.56
46690;BME280;32423;45.398;10.874;2023-03-23T02:51:19;100580.78;;;13.44;54.82
46690;BME280;32423;45.398;10.874;2023-03-23T02:54:12;100582.28;;;13.54;54.79
46690;BME280;32423;45.398;10.874;2023-03-23T02:57:05;100579.44;;;13.50;54.75
46690;BME280;32423;45.398;10.874;2023-03-23T02:59:58;100580.03;;;13.56;54.30
46690;BME280;32423;45.398;10.874;2023-03-23T03:02:56;100587.19;;;13.60;54.58
46690;BME280;32423;45.398;10.874;2023-03-23T03:08:46;100575.81;;;13.58;54.68
46690;BME280;32423;45.398;10.874;2023-03-23T03:11:40;100585.56;;;13.47;55.22
46690;BME280;32423;45.398;10.874;2023-03-23T03:14:34;100572.13;;;13.42;55.39
46690;BME280;32423;45.398;10.874;2023-03-23T03:17:29;100575.75;;;13.34;55.57
46690;BME280;32423;45.398;10.874;2023-03-23T03:20:24;100573.25;;;13.41;55.40
46690;BME280;32423;45.398;10.874;2023-03-23T03:23:17;100579.41;;;13.38;55.51
46690;BME280;32423;45.398;10.874;2023-03-23T03:26:09;100577.69;;;13.34;56.21
46690;BME280;32423;45.398;10.874;2023-03-23T03:29:08;100589.41;;;13.34;56.01
46690;BME280;32423;45.398;10.874;2023-03-23T03:32:02;100592.94;;;13.35;55.51
46690;BME280;32423;45.398;10.874;2023-03-23T03:34:56;100592.03;;;13.43;55.22
46690;BME280;32423;45.398;10.874;2023-03-23T03:37:48;100576.44;;;13.43;55.25
46690;BME280;32423;45.398;10.874;2023-03-23T03:40:40;100586.03;;;13.49;54.70
46690;BME280;32423;45.398;10.874;2023-03-23T03:43:32;100579.50;;;13.42;54.53
46690;BME280;32423;45.398;10.874;2023-03-23T03:46:25;100586.78;;;13.38;54.83
46690;BME280;32423;45.398;10.874;2023-03-23T03:49:17;100588.91;;;13.20;55.07
46690;BME280;32423;45.398;10.874;2023-03-23T03:52:09;100585.22;;;13.16;55.82
46690;BME280;32423;45.398;10.874;2023-03-23T03:55:02;100592.75;;;13.19;56.19
46690;BME280;32423;45.398;10.874;2023-03-23T03:57:54;100592.50;;;13.12;55.76
46690;BME280;32423;45.398;10.874;2023-03-23T04:01:04;100586.69;;;12.93;56.55
46690;BME280;32423;45.398;10.874;2023-03-23T04:03:57;100580.91;;;12.73;57.57
46690;BME280;32423;45.398;10.874;2023-03-23T04:06:51;100586.22;;;12.91;57.09
46690;BME280;32423;45.398;10.874;2023-03-23T04:09:43;100589.94;;;13.07;56.42
46690;BME280;32423;45.398;10.874;2023-03-23T04:12:35;100589.44;;;13.13;56.21
46690;BME280;32423;45.398;10.874;2023-03-23T04:15:44;100592.06;;;13.22;55.79
46690;BME280;32423;45.398;10.874;2023-03-23T04:18:37;100592.75;;;13.19;55.71
46690;BME280;32423;45.398;10.874;2023-03-23T04:21:29;100599.25;;;13.26;55.61
46690;BME280;32423;45.398;10.874;2023-03-23T04:24:21;100598.00;;;13.24;55.91
46690;BME280;32423;45.398;10.874;2023-03-23T04:27:13;100600.06;;;13.27;55.77
46690;BME280;32423;45.398;10.874;2023-03-23T04:30:05;100594.00;;;13.21;55.48
46690;BME280;32423;45.398;10.874;2023-03-23T04:33:06;100600.63;;;13.20;55.47
46690;BME280;32423;45.398;10.874;2023-03-23T04:35:58;100601.47;;;13.12;55.30
46690;BME280;32423;45.398;10.874;2023-03-23T04:38:55;100615.25;;;13.16;55.82
46690;BME280;32423;45.398;10.874;2023-03-23T04:41:47;100615.63;;;13.06;55.83
46690;BME280;32423;45.398;10.874;2023-03-23T04:44:52;100614.47;;;12.95;56.40
46690;BME280;32423;45.398;10.874;2023-03-23T04:47:48;100619.13;;;12.94;56.45
46690;BME280;32423;45.398;10.874;2023-03-23T04:50:45;100617.03;;;12.91;56.61
46690;BME280;32423;45.398;10.874;2023-03-23T04:53:41;100620.84;;;12.78;56.79
46690;BME280;32423;45.398;10.874;2023-03-23T04:56:33;100612.50;;;12.54;57.17
46690;BME280;32423;45.398;10.874;2023-03-23T04:59:29;100612.81;;;12.52;57.89
46690;BME280;32423;45.398;10.874;2023-03-23T05:02:30;100615.66;;;12.64;57.69
46690;BME280;32423;45.398;10.874;2023-03-23T05:05:22;100617.69;;;12.67;57.75
46690;BME280;32423;45.398;10.874;2023-03-23T05:08:14;100618.59;;;12.51;57.68
46690;BME280;32423;45.398;10.874;2023-03-23T05:11:07;100610.63;;;12.46;58.16
46690;BME280;32423;45.398;10.874;2023-03-23T05:13:59;100623.25;;;12.50;57.92
46690;BME280;32423;45.398;10.874;2023-03-23T05:16:51;100620.88;;;12.49;58.15
46690;BME280;32423;45.398;10.874;2023-03-23T05:19:43;100619.22;;;12.56;57.59
46690;BME280;32423;45.398;10.874;2023-03-23T05:22:49;100622.63;;;12.53;57.97
46690;BME280;32423;45.398;10.874;2023-03-23T05:25:44;100633.53;;;12.53;57.95
46690;BME280;32423;45.398;10.874;2023-03-23T05:28:37;100630.13;;;12.56;57.96
46690;BME280;32423;45.398;10.874;2023-03-23T05:31:37;100633.97;;;12.55;57.94
46690;BME280;32423;45.398;10.874;2023-03-23T05:34:29;100642.09;;;12.34;58.61
46690;BME280;32423;45.398;10.874;2023-03-23T05:37:20;100644.16;;;12.46;58.48
46690;BME280;32423;45.398;10.874;2023-03-23T05:40:16;100649.50;;;12.34;58.25
46690;BME280;32423;45.398;10.874;2023-03-23T05:43:12;100650.91;;;12.40;58.45
46690;BME280;32423;45.398;10.874;2023-03-23T05:46:20;100658.66;;;12.29;58.52
46690;BME280;32423;45.398;10.874;2023-03-23T05:49:12;100655.25;;;12.41;58.22
46690;BME280;32423;45.398;10.874;2023-03-23T05:52:04;100656.34;;;12.49;57.87
46690;BME280;32423;45.398;10.874;2023-03-23T05:54:55;100662.91;;;12.48;58.10
46690;BME280;32423;45.398;10.874;2023-03-23T05:57:48;100668.97;;;12.53;58.10
46690;BME280;32423;45.398;10.874;2023-03-23T06:00:44;100671.41;;;12.46;58.26
46690;BME280;32423;45.398;10.874;2023-03-23T06:03:41;100680.22;;;12.52;57.94
46690;BME280;32423;45.398;10.874;2023-03-23T06:06:37;100683.25;;;12.50;58.22
46690;BME280;32423;45.398;10.874;2023-03-23T06:09:29;100688.25;;;12.48;59.07
46690;BME280;32423;45.398;10.874;2023-03-23T06:12:44;100691.88;;;12.61;58.76
46690;BME280;32423;45.398;10.874;2023-03-23T06:15:49;100691.13;;;12.52;59.06
46690;BME280;32423;45.398;10.874;2023-03-23T06:18:50;100684.41;;;12.49;59.55
46690;BME280;32423;45.398;10.874;2023-03-23T06:21:53;100691.22;;;12.64;59.04
46690;BME280;32423;45.398;10.874;2023-03-23T06:25:06;100697.38;;;12.81;59.06
46690;BME280;32423;45.398;10.874;2023-03-23T06:28:01;100691.72;;;12.86;58.60
46690;BME280;32423;45.398;10.874;2023-03-23T06:30:53;100704.06;;;12.93;58.62
46690;BME280;32423;45.398;10.874;2023-03-23T06:33:45;100688.81;;;12.92;58.45
46690;BME280;32423;45.398;10.874;2023-03-23T06:36:50;100700.19;;;12.94;58.56
46690;BME280;32423;45.398;10.874;2023-03-23T06:39:46;100709.00;;;12.99;58.11
46690;BME280;32423;45.398;10.874;2023-03-23T06:42:51;100708.44;;;13.06;58.23
46690;BME280;32423;45.398;10.874;2023-03-23T06:46:01;100707.16;;;13.12;58.18
46690;BME280;32423;45.398;10.874;2023-03-23T06:49:06;100714.50;;;13.20;57.82
46690;BME280;32423;45.398;10.874;2023-03-23T06:52:03;100722.94;;;13.27;58.43
46690;BME280;32423;45.398;10.874;2023-03-23T06:54:56;100723.56;;;13.33;58.88
46690;BME280;32423;45.398;10.874;2023-03-23T06:57:48;100726.09;;;13.38;58.99
46690;BME280;32423;45.398;10.874;2023-03-23T07:00:38;100729.63;;;13.38;59.41
46690;BME280;32423;45.398;10.874;2023-03-23T07:03:30;100732.47;;;13.42;59.78
46690;BME280;32423;45.398;10.874;2023-03-23T07:06:22;100726.47;;;13.48;59.93
46690;BME280;32423;45.398;10.874;2023-03-23T07:09:17;100734.34;;;13.50;60.09
46690;BME280;32423;45.398;10.874;2023-03-23T07:12:09;100731.66;;;13.62;59.17
46690;BME280;32423;45.398;10.874;2023-03-23T07:15:05;100735.19;;;13.62;58.67
46690;BME280;32423;45.398;10.874;2023-03-23T07:17:57;100727.91;;;13.66;57.53
46690;BME280;32423;45.398;10.874;2023-03-23T07:21:03;100735.78;;;13.68;57.22
46690;BME280;32423;45.398;10.874;2023-03-23T07:23:57;100728.31;;;13.77;56.94
46690;BME280;32423;45.398;10.874;2023-03-23T07:27:06;100725.16;;;13.87;56.31
46690;BME280;32423;45.398;10.874;2023-03-23T07:29:58;100736.44;;;13.86;56.70
46690;BME280;32423;45.398;10.874;2023-03-23T07:32:50;100739.50;;;13.84;56.99
46690;BME280;32423;45.398;10.874;2023-03-23T07:35:42;100729.88;;;13.99;57.11
46690;BME280;32423;45.398;10.874;2023-03-23T07:38:34;100736.25;;;14.03;56.90
46690;BME280;32423;45.398;10.874;2023-03-23T07:41:25;100735.59;;;14.18;56.72
46690;BME280;32423;45.398;10.874;2023-03-23T07:44:20;100736.06;;;14.20;56.55
46690;BME280;32423;45.398;10.874;2023-03-23T07:47:12;100734.25;;;14.24;56.82
46690;BME280;32423;45.398;10.874;2023-03-23T07:50:04;100738.94;;;14.24;57.11
46690;BME280;32423;45.398;10.874;2023-03-23T07:52:58;100736.78;;;14.29;57.11
46690;BME280;32423;45.398;10.874;2023-03-23T07:55:50;100726.56;;;14.38;56.64
46690;BME280;32423;45.398;10.874;2023-03-23T07:59:06;100730.78;;;14.48;56.20
46690;BME280;32423;45.398;10.874;2023-03-23T08:02:00;100737.28;;;14.55;55.98
46690;BME280;32423;45.398;10.874;2023-03-23T08:05:13;100730.00;;;14.72;55.54
46690;BME280;32423;45.398;10.874;2023-03-23T08:08:25;100731.16;;;14.83;55.09
46690;BME280;32423;45.398;10.874;2023-03-23T08:11:34;100736.72;;;14.86;55.09
46690;BME280;32423;45.398;10.874;2023-03-23T08:14:42;100730.56;;;14.89;55.84
46690;BME280;32423;45.398;10.874;2023-03-23T08:18:07;100736.47;;;15.04;55.53
46690;BME280;32423;45.398;10.874;2023-03-23T08:21:18;100734.53;;;15.16;55.29
46690;BME280;32423;45.398;10.874;2023-03-23T08:24:46;100737.25;;;15.28;54.82
46690;BME280;32423;45.398;10.874;2023-03-23T08:28:03;100742.69;;;15.53;53.08
46690;BME280;32423;45.398;10.874;2023-03-23T08:31:16;100741.97;;;15.56;53.47
46690;BME280;32423;45.398;10.874;2023-03-23T08:34:23;100749.19;;;15.48;53.67
46690;BME280;32423;45.398;10.874;2023-03-23T08:37:51;100749.16;;;15.60;53.48
46690;BME280;32423;45.398;10.874;2023-03-23T08:40:59;100745.00;;;15.78;52.20
46690;BME280;32423;45.398;10.874;2023-03-23T08:43:57;100744.63;;;15.80;52.57
46690;BME280;32423;45.398;10.874;2023-03-23T08:47:05;100754.66;;;15.88;52.77
46690;BME280;32423;45.398;10.874;2023-03-23T08:50:13;100750.06;;;15.92;52.98
46690;BME280;32423;45.398;10.874;2023-03-23T08:53:23;100754.78;;;16.07;52.42
46690;BME280;32423;45.398;10.874;2023-03-23T08:56:19;100756.66;;;16.19;52.37
46690;BME280;32423;45.398;10.874;2023-03-23T08:59:44;100762.44;;;16.30;52.03
46690;BME280;32423;45.398;10.874;2023-03-23T09:02:54;100757.22;;;16.24;52.51
46690;BME280;32423;45.398;10.874;2023-03-23T09:05:47;100771.47;;;16.30;52.22
46690;BME280;32423;45.398;10.874;2023-03-23T09:08:52;100757.13;;;16.37;52.59
46690;BME280;32423;45.398;10.874;2023-03-23T09:11:44;100755.53;;;16.51;52.25
46690;BME280;32423;45.398;10.874;2023-03-23T09:14:36;100758.22;;;16.63;51.97
46690;BME280;32423;45.398;10.874;2023-03-23T09:17:28;100763.25;;;16.61;51.75
46690;BME280;32423;45.398;10.874;2023-03-23T09:20:20;100759.91;;;16.68;51.56
46690;BME280;32423;45.398;10.874;2023-03-23T09:23:12;100772.16;;;16.71;51.34
46690;BME280;32423;45.398;10.874;2023-03-23T09:26:04;100774.97;;;16.74;51.60
46690;BME280;32423;45.398;10.874;2023-03-23T09:28:56;100782.13;;;16.79;51.29
46690;BME280;32423;45.398;10.874;2023-03-23T09:31:48;100773.16;;;16.97;50.86
46690;BME280;32423;45.398;10.874;2023-03-23T09:34:40;100778.03;;;17.04;50.37
46690;BME280;32423;45.398;10.874;2023-03-23T09:37:32;100779.03;;;17.12;50.04
46690;BME280;32423;45.398;10.874;2023-03-23T09:40:38;100781.38;;;17.13;49.60
46690;BME280;32423;45.398;10.874;2023-03-23T09:49:59;100779.66;;;17.40;48.27
46690;BME280;32423;45.398;10.874;2023-03-23T09:52:58;100776.59;;;17.26;48.93
46690;BME280;32423;45.398;10.874;2023-03-23T09:55:50;100773.34;;;17.39;48.92
46690;BME280;32423;45.398;10.874;2023-03-23T09:58:59;100765.13;;;17.59;48.33
46690;BME280;32423;45.398;10.874;2023-03-23T10:01:50;100774.91;;;17.56;48.61
46690;BME280;32423;45.398;10.874;2023-03-23T10:04:51;100776.59;;;17.61;47.36
46690;BME280;32423;45.398;10.874;2023-03-23T10:07:45;100775.53;;;17.49;47.73
46690;BME280;32423;45.398;10.874;2023-03-23T10:10:55;100773.75;;;17.57;47.31
46690;BME280;32423;45.398;10.874;2023-03-23T10:16:42;100767.81;;;17.74;47.64
46690;BME280;32423;45.398;10.874;2023-03-23T10:19:38;100767.13;;;17.77;47.80
46690;BME280;32423;45.398;10.874;2023-03-23T10:22:33;100765.75;;;17.87;47.49
46690;BME280;32423;45.398;10.874;2023-03-23T10:25:26;100756.59;;;18.02;47.14
46690;BME280;32423;45.398;10.874;2023-03-23T10:28:21;100762.16;;;18.06;46.88
46690;BME280;32423;45.398;10.874;2023-03-23T10:31:18;100764.25;;;18.12;46.32
46690;BME280;32423;45.398;10.874;2023-03-23T10:34:11;100757.06;;;18.27;46.32
46690;BME280;32423;45.398;10.874;2023-03-23T10:37:19;100751.91;;;18.25;46.21
46690;BME280;32423;45.398;10.874;2023-03-23T10:40:16;100763.16;;;18.17;46.54
46690;BME280;32423;45.398;10.874;2023-03-23T10:43:08;100757.72;;;18.20;46.78
46690;BME280;32423;45.398;10.874;2023-03-23T10:46:00;100759.06;;;18.30;46.54
46690;BME280;32423;45.398;10.874;2023-03-23T10:48:53;100759.44;;;18.28;46.97
46690;BME280;32423;45.398;10.874;2023-03-23T10:51:45;100745.31;;;18.30;47.11
46690;BME280;32423;45.398;10.874;2023-03-23T10:54:38;100744.16;;;18.31;47.02
46690;BME280;32423;45.398;10.874;2023-03-23T10:57:30;100748.53;;;18.35;47.46
46690;BME280;32423;45.398;10.874;2023-03-23T11:00:22;100738.34;;;18.36;47.23
46690;BME280;32423;45.398;10.874;2023-03-23T11:06:08;100733.78;;;18.24;47.21
46690;BME280;32423;45.398;10.874;2023-03-23T11:09:00;100740.59;;;18.30;47.16
46690;BME280;32423;45.398;10.874;2023-03-23T11:11:56;100731.06;;;18.47;46.25
46690;BME280;32423;45.398;10.874;2023-03-23T11:14:48;100726.91;;;18.57;46.07
46690;BME280;32423;45.398;10.874;2023-03-23T11:17:40;100719.44;;;18.57;46.29
46690;BME280;32423;45.398;10.874;2023-03-23T11:20:32;100723.81;;;18.58;46.00
46690;BME280;32423;45.398;10.874;2023-03-23T11:26:39;100722.53;;;18.78;45.66
46690;BME280;32423;45.398;10.874;2023-03-23T11:29:34;100719.41;;;18.80;45.18
46690;BME280;32423;45.398;10.874;2023-03-23T11:32:27;100715.44;;;18.77;45.61
46690;BME280;32423;45.398;10.874;2023-03-23T11:35:17;100714.97;;;18.72;45.48
46690;BME280;32423;45.398;10.874;2023-03-23T11:38:11;100705.94;;;18.75;45.08
46690;BME280;32423;45.398;10.874;2023-03-23T11:41:08;100715.84;;;18.79;45.22
46690;BME280;32423;45.398;10.874;2023-03-23T11:44:01;100709.19;;;18.80;44.94
46690;BME280;32423;45.398;10.874;2023-03-23T11:47:06;100716.44;;;18.92;45.06
46690;BME280;32423;45.398;10.874;2023-03-23T11:50:14;100713.06;;;19.02;45.80
46690;BME280;32423;45.398;10.874;2023-03-23T11:58:57;100712.88;;;19.18;45.03
46690;BME280;32423;45.398;10.874;2023-03-23T12:05:10;100715.97;;;26.80;31.03
46690;BME280;32423;45.398;10.874;2023-03-23T12:13:55;100712.88;;;26.98;30.14
46690;BME280;32423;45.398;10.874;2023-03-23T12:22:58;100691.63;;;23.69;34.52
46690;BME280;32423;45.398;10.874;2023-03-23T12:29:02;100684.41;;;22.38;37.65
46690;BME280;32423;45.398;10.874;2023-03-23T12:35:17;100679.56;;;21.93;38.48
46690;BME280;32423;45.398;10.874;2023-03-23T12:38:15;100677.31;;;21.15;40.26
46690;BME280;32423;45.398;10.874;2023-03-23T12:41:19;100668.38;;;21.50;39.50
46690;BME280;32423;45.398;10.874;2023-03-23T12:44:11;100661.22;;;21.39;39.69
46690;BME280;32423;45.398;10.874;2023-03-23T12:47:21;100658.19;;;21.86;38.67
46690;BME280;32423;45.398;10.874;2023-03-23T12:50:21;100657.41;;;21.82;38.81
46690;BME280;32423;45.398;10.874;2023-03-23T12:56:14;100632.72;;;21.20;39.93
46690;BME280;32423;45.398;10.874;2023-03-23T12:59:13;100640.56;;;21.15;40.47
46690;BME280;32423;45.398;10.874;2023-03-23T13:02:19;100628.84;;;21.50;39.38
46690;BME280;32423;45.398;10.874;2023-03-23T13:08:10;100625.72;;;21.69;39.06
46690;BME280;32423;45.398;10.874;2023-03-23T13:11:03;100619.81;;;21.81;38.83
46690;BME280;32423;45.398;10.874;2023-03-23T13:13:55;100615.78;;;21.36;39.81
46690;BME280;32423;45.398;10.874;2023-03-23T13:16:57;100620.16;;;21.48;39.33
46690;BME280;32423;45.398;10.874;2023-03-23T13:23:09;100615.38;;;21.45;39.13
46690;BME280;32423;45.398;10.874;2023-03-23T13:26:03;100616.25;;;21.81;38.41
46690;BME280;32423;45.398;10.874;2023-03-23T13:29:00;100609.13;;;21.69;38.43
46690;BME280;32423;45.398;10.874;2023-03-23T13:32:09;100605.22;;;22.16;36.92
46690;BME280;32423;45.398;10.874;2023-03-23T13:35:02;100607.59;;;22.07;35.88
46690;BME280;32423;45.398;10.874;2023-03-23T13:37:56;100607.22;;;22.01;36.50
46690;BME280;32423;45.398;10.874;2023-03-23T13:40:47;100604.00;;;22.45;35.13
46690;BME280;32423;45.398;10.874;2023-03-23T13:43:39;100599.28;;;22.32;35.91
46690;BME280;32423;45.398;10.874;2023-03-23T13:46:32;100596.94;;;22.09;35.81
46690;BME280;32423;45.398;10.874;2023-03-23T13:49:24;100584.25;;;21.83;35.18
46690;BME280;32423;45.398;10.874;2023-03-23T13:58:23;100567.25;;;22.09;33.88
46690;BME280;32423;45.398;10.874;2023-03-23T14:01:19;100577.91;;;22.25;34.39
46690;BME280;32423;45.398;10.874;2023-03-23T14:04:21;100567.25;;;22.09;35.70
46690;BME280;32423;45.398;10.874;2023-03-23T14:07:15;100571.88;;;21.34;37.83
46690;BME280;32423;45.398;10.874;2023-03-23T14:10:14;100562.06;;;21.65;37.26
46690;BME280;32423;45.398;10.874;2023-03-23T14:13:09;100567.25;;;22.02;34.51
46690;BME280;32423;45.398;10.874;2023-03-23T14:16:02;100558.13;;;21.84;36.21
46690;BME280;32423;45.398;10.874;2023-03-23T14:18:58;100555.75;;;21.58;35.88
46690;BME280;32423;45.398;10.874;2023-03-23T14:21:59;100548.22;;;21.55;36.34
46690;BME280;32423;45.398;10.874;2023-03-23T14:24:51;100549.81;;;21.70;34.76
46690;BME280;32423;45.398;10.874;2023-03-23T14:27:43;100535.59;;;21.82;34.04
46690;BME280;32423;45.398;10.874;2023-03-23T14:30:36;100538.31;;;21.54;34.83
46690;BME280;32423;45.398;10.874;2023-03-23T14:33:25;100537.16;;;21.76;34.79
46690;BME280;32423;45.398;10.874;2023-03-23T14:36:26;100541.09;;;21.64;33.75
46690;BME280;32423;45.398;10.874;2023-03-23T14:42:14;100547.44;;;21.65;34.76
46690;BME280;32423;45.398;10.874;2023-03-23T14:45:07;100542.66;;;21.41;35.80
46690;BME280;32423;45.398;10.874;2023-03-23T14:47:59;100550.94;;;21.23;36.40
46690;BME280;32423;45.398;10.874;2023-03-23T14:50:55;100546.53;;;21.11;36.47
46690;BME280;32423;45.398;10.874;2023-03-23T14:53:47;100541.38;;;21.03;35.51
46690;BME280;32423;45.398;10.874;2023-03-23T14:56:40;100550.53;;;21.17;35.69
46690;BME280;32423;45.398;10.874;2023-03-23T14:59:32;100555.69;;;21.37;34.66
46690;BME280;32423;45.398;10.874;2023-03-23T15:02:24;100543.25;;;20.81;37.29
46690;BME280;32423;45.398;10.874;2023-03-23T15:05:17;100544.88;;;20.96;34.44
46690;BME280;32423;45.398;10.874;2023-03-23T15:08:11;100547.22;;;20.90;36.19
46690;BME280;32423;45.398;10.874;2023-03-23T15:14:19;100542.50;;;20.91;35.70
46690;BME280;32423;45.398;10.874;2023-03-23T15:17:12;100547.22;;;20.90;35.43
46690;BME280;32423;45.398;10.874;2023-03-23T15:20:10;100542.84;;;20.79;35.93
46690;BME280;32423;45.398;10.874;2023-03-23T15:23:06;100545.91;;;20.60;37.26
46690;BME280;32423;45.398;10.874;2023-03-23T15:26:02;100543.50;;;20.55;36.68
46690;BME280;32423;45.398;10.874;2023-03-23T15:32:19;100539.91;;;20.47;36.48
46690;BME280;32423;45.398;10.874;2023-03-23T15:35:14;100539.88;;;20.36;36.53
46690;BME280;32423;45.398;10.874;2023-03-23T15:38:12;100531.47;;;20.26;36.73
46690;BME280;32423;45.398;10.874;2023-03-23T15:41:22;100537.75;;;20.23;36.16
46690;BME280;32423;45.398;10.874;2023-03-23T15:44:18;100538.72;;;20.48;33.79
46690;BME280;32423;45.398;10.874;2023-03-23T15:47:14;100537.19;;;20.58;33.00
46690;BME280;32423;45.398;10.874;2023-03-23T15:50:50;100540.84;;;20.76;32.05
46690;BME280;32423;45.398;10.874;2023-03-23T15:53:29;100538.16;;;20.90;31.94
46690;BME280;32423;45.398;10.874;2023-03-23T15:56:19;100538.56;;;20.96;31.71
46690;BME280;32423;45.398;10.874;2023-03-23T15:59:11;100530.28;;;20.96;31.73
46690;BME280;32423;45.398;10.874;2023-03-23T16:02:00;100535.00;;;20.95;31.00
46690;BME280;32423;45.398;10.874;2023-03-23T16:04:52;100535.03;;;21.02;30.54
46690;BME280;32423;45.398;10.874;2023-03-23T16:07:44;100541.75;;;20.98;30.70
46690;BME280;32423;45.398;10.874;2023-03-23T16:10:36;100541.34;;;20.96;30.20
46690;BME280;32423;45.398;10.874;2023-03-23T16:13:28;100535.81;;;20.96;30.46
46690;BME280;32423;45.398;10.874;2023-03-23T16:19:16;100541.69;;;20.87;30.53
46690;BME280;32423;45.398;10.874;2023-03-23T16:22:08;100536.94;;;20.80;30.48
46690;BME280;32423;45.398;10.874;2023-03-23T16:25:00;100539.31;;;20.82;30.11
46690;BME280;32423;45.398;10.874;2023-03-23T16:27:53;100547.94;;;20.70;30.23
46690;BME280;32423;45.398;10.874;2023-03-23T16:30:46;100543.19;;;20.67;30.22
46690;BME280;32423;45.398;10.874;2023-03-23T16:33:37;100549.47;;;20.64;30.79